createdAt,value
2018-10-02T00:03:51.608Z,9.30
2018-10-02T00:07:59.909Z,9.30
2018-10-02T00:12:14.049Z,9.40
2018-10-02T00:16:22.512Z,9.30
2018-10-02T00:20:30.775Z,9.40
2018-10-02T00:24:39.220Z,9.30
2018-10-02T00:28:47.518Z,9.30
2018-10-02T00:32:56.548Z,9.30
2018-10-02T00:37:05.365Z,9.20
2018-10-02T00:41:13.624Z,9.20
2018-10-02T00:45:21.879Z,9.30
2018-10-02T00:49:30.140Z,9.20
2018-10-02T00:53:38.847Z,9.40
2018-10-02T00:57:47.108Z,9.20
2018-10-02T01:01:55.548Z,9.20
2018-10-02T01:06:04.179Z,9.20
2018-10-02T01:10:12.520Z,9.30
2018-10-02T01:18:28.904Z,9.20
2018-10-02T01:22:37.638Z,9.10
2018-10-02T01:26:45.967Z,9.10
2018-10-02T01:30:54.696Z,9.10
2018-10-02T01:35:02.945Z,9.10
2018-10-02T01:39:11.417Z,9.20
2018-10-02T01:43:19.706Z,9.20
2018-10-02T01:47:28.007Z,9.20
2018-10-02T01:51:37.108Z,9.20
2018-10-02T01:55:45.368Z,9.30
2018-10-02T01:59:53.655Z,9.20
2018-10-02T02:04:01.976Z,9.30
2018-10-02T02:08:10.555Z,9.30
2018-10-02T02:12:18.860Z,9.30
2018-10-02T02:16:27.339Z,9.10
2018-10-02T02:20:36.158Z,9.20
2018-10-02T02:24:44.539Z,9.20
2018-10-02T02:28:53.170Z,9.30
2018-10-02T02:33:01.505Z,9.30
2018-10-02T02:37:10.112Z,9.30
2018-10-02T02:41:18.835Z,9.30
2018-10-02T02:45:27.139Z,9.40
2018-10-02T02:49:40.769Z,9.40
2018-10-02T02:53:49.668Z,9.40
2018-10-02T02:57:58.013Z,9.30
2018-10-02T03:02:06.335Z,9.40
2018-10-02T03:06:14.592Z,9.30
2018-10-02T03:10:23.194Z,9.30
2018-10-02T03:14:31.472Z,9.30
2018-10-02T03:18:39.968Z,9.30
2018-10-02T03:22:48.613Z,9.40
2018-10-02T03:26:57.000Z,9.30
2018-10-02T03:31:05.406Z,9.20
2018-10-02T03:35:13.716Z,9.30
2018-10-02T03:43:30.217Z,9.20
2018-10-02T03:47:38.649Z,9.30
2018-10-02T03:51:47.216Z,9.30
2018-10-02T03:55:55.677Z,9.20
2018-10-02T04:00:04.152Z,9.30
2018-10-02T04:04:12.646Z,9.40
2018-10-02T04:08:21.990Z,9.30
2018-10-02T04:12:30.289Z,9.30
2018-10-02T04:16:39.248Z,9.40
2018-10-02T04:20:47.748Z,9.30
2018-10-02T04:24:56.224Z,9.40
2018-10-02T04:29:05.127Z,9.40
2018-10-02T04:33:13.399Z,9.40
2018-10-02T04:37:22.422Z,9.40
2018-10-02T04:41:30.738Z,9.40
2018-10-02T04:45:39.305Z,9.40
2018-10-02T04:49:47.693Z,9.40
2018-10-02T04:53:56.107Z,9.50
2018-10-02T04:58:04.353Z,9.40
2018-10-02T05:02:13.003Z,9.40
2018-10-02T05:06:21.982Z,9.50
2018-10-02T05:10:30.292Z,9.40
2018-10-02T05:14:38.623Z,9.40
2018-10-02T05:18:47.016Z,9.40
2018-10-02T05:22:55.631Z,9.50
2018-10-02T05:27:04.120Z,9.50
2018-10-02T05:31:12.591Z,9.50
2018-10-02T05:35:21.747Z,9.50
2018-10-02T05:39:30.044Z,9.40
2018-10-02T05:43:38.424Z,9.60
2018-10-02T05:47:46.735Z,9.60
2018-10-02T05:51:55.518Z,9.60
2018-10-02T05:56:03.820Z,9.60
2018-10-02T06:00:12.384Z,9.60
2018-10-02T06:04:20.887Z,9.60
2018-10-02T06:08:29.166Z,9.60
2018-10-02T06:12:37.387Z,9.50
2018-10-02T06:16:45.671Z,9.50
2018-10-02T06:20:54.020Z,9.50
2018-10-02T06:25:02.262Z,9.30
2018-10-02T06:29:10.544Z,9.40
2018-10-02T06:33:19.853Z,9.50
2018-10-02T06:37:28.174Z,9.50
2018-10-02T06:41:36.423Z,9.40
2018-10-02T06:45:45.683Z,9.40
2018-10-02T06:49:54.201Z,9.40
2018-10-02T06:54:02.432Z,9.50
2018-10-02T06:58:10.750Z,9.50
2018-10-02T07:02:19.334Z,9.40
2018-10-02T07:06:27.591Z,9.50
2018-10-02T07:10:35.896Z,9.60
2018-10-02T07:14:44.172Z,9.60
2018-10-02T07:18:52.797Z,9.70
2018-10-02T07:23:01.023Z,9.80
2018-10-02T07:27:09.933Z,9.90
2018-10-02T07:31:18.950Z,9.80
2018-10-02T07:35:27.232Z,9.80
2018-10-02T07:39:35.497Z,9.90
2018-10-02T07:43:43.763Z,9.90
2018-10-02T07:47:52.375Z,9.90
2018-10-02T07:52:00.631Z,10.10
2018-10-02T07:56:09.204Z,10.10
2018-10-02T08:00:17.505Z,10.20
2018-10-02T08:04:26.200Z,10.20
2018-10-02T08:08:34.516Z,10.10
2018-10-02T08:12:42.905Z,10.20
2018-10-02T08:16:51.696Z,10.30
2018-10-02T08:21:00.058Z,10.20
2018-10-02T08:25:08.349Z,10.20
2018-10-02T08:29:16.770Z,10.30
2018-10-02T08:37:33.265Z,10.40
2018-10-02T08:41:42.013Z,10.50
2018-10-02T08:45:50.275Z,10.60
2018-10-02T08:49:58.703Z,10.70
2018-10-02T08:54:08.151Z,10.50
2018-10-02T08:58:16.610Z,10.50
2018-10-02T09:02:24.876Z,10.60
2018-10-02T09:06:33.254Z,10.50
2018-10-02T09:10:42.021Z,10.50
2018-10-02T09:14:50.268Z,10.40
2018-10-02T09:18:58.653Z,10.50
2018-10-02T09:23:06.931Z,10.40
2018-10-02T09:27:15.381Z,10.30
2018-10-02T09:31:29.108Z,10.20
2018-10-02T09:35:42.770Z,10.40
2018-10-02T09:39:56.480Z,10.20
2018-10-02T09:44:05.213Z,10.30
2018-10-02T09:48:14.599Z,10.30
2018-10-02T09:52:22.863Z,10.20
2018-10-02T09:56:36.991Z,10.20
2018-10-02T10:00:50.813Z,10.10
2018-10-02T10:04:59.173Z,10.20
2018-10-02T10:09:08.761Z,10.20
2018-10-02T10:13:17.136Z,10.30
2018-10-02T10:17:25.547Z,10.20
2018-10-02T10:21:33.777Z,10.40
2018-10-02T10:25:42.650Z,10.30
2018-10-02T10:29:50.953Z,10.50
2018-10-02T10:33:59.733Z,10.50
2018-10-02T10:38:08.131Z,10.40
2018-10-02T10:42:16.649Z,10.60
2018-10-02T10:46:25.067Z,10.50
2018-10-02T10:50:33.259Z,10.60
2018-10-02T10:54:51.568Z,10.70
2018-10-02T10:59:00.384Z,10.70
2018-10-02T11:03:08.930Z,10.80
2018-10-02T11:07:17.235Z,10.80
2018-10-02T11:11:25.460Z,10.80
2018-10-02T11:15:34.449Z,10.80
2018-10-02T11:19:43.140Z,10.90
2018-10-02T11:23:51.386Z,11.00
2018-10-02T11:27:59.813Z,11.00
2018-10-02T11:32:08.240Z,11.10
2018-10-02T11:36:16.797Z,11.20
2018-10-02T11:40:25.015Z,11.20
2018-10-02T11:44:33.372Z,11.30
2018-10-02T11:48:41.972Z,11.20
2018-10-02T11:52:50.276Z,11.20
2018-10-02T11:56:59.326Z,11.20
2018-10-02T12:01:07.854Z,11.30
2018-10-02T12:05:16.260Z,11.40
2018-10-02T12:09:24.542Z,11.40
2018-10-02T12:13:33.029Z,11.40
2018-10-02T12:17:41.484Z,11.40
2018-10-02T12:21:49.824Z,11.40
2018-10-02T12:25:58.118Z,11.50
2018-10-02T12:30:06.429Z,11.60
2018-10-02T12:34:15.038Z,11.60
2018-10-02T12:38:23.299Z,11.70
2018-10-02T12:42:31.906Z,11.80
2018-10-02T12:46:40.702Z,11.90
2018-10-02T12:50:49.060Z,11.90
2018-10-02T12:54:57.379Z,11.90
2018-10-02T12:59:05.780Z,12.00
2018-10-02T13:03:14.406Z,12.00
2018-10-02T13:11:31.022Z,12.10
2018-10-02T13:15:39.678Z,12.10
2018-10-02T13:19:47.963Z,12.20
2018-10-02T13:23:56.175Z,12.20
2018-10-02T13:28:04.426Z,12.20
2018-10-02T13:32:12.936Z,12.30
2018-10-02T13:36:21.255Z,12.40
2018-10-02T13:40:29.924Z,12.50
2018-10-02T13:44:38.510Z,12.60
2018-10-02T13:48:46.797Z,12.70
2018-10-02T13:52:55.138Z,12.90
2018-10-02T13:57:03.503Z,12.90
2018-10-02T14:01:12.409Z,12.90
2018-10-02T14:05:20.684Z,13.00
2018-10-02T14:09:29.095Z,13.10
2018-10-02T14:13:37.783Z,13.20
2018-10-02T14:17:46.525Z,13.30
2018-10-02T14:21:54.822Z,13.30
2018-10-02T14:26:03.298Z,13.40
2018-10-02T14:30:12.481Z,13.70
2018-10-02T14:34:20.796Z,13.70
2018-10-02T14:38:29.118Z,13.90
2018-10-02T14:42:37.700Z,13.90
2018-10-02T14:46:46.011Z,14.00
2018-10-02T14:50:54.368Z,14.20
2018-10-02T14:55:02.723Z,14.20
2018-10-02T14:59:11.245Z,14.30
2018-10-02T15:03:19.517Z,14.50
2018-10-02T15:07:28.011Z,14.50
2018-10-02T15:11:36.835Z,14.40
2018-10-02T15:15:45.268Z,14.40
2018-10-02T15:19:53.584Z,14.40
2018-10-02T15:28:10.349Z,14.40
2018-10-02T15:32:18.650Z,14.40
2018-10-02T15:36:27.045Z,14.40
2018-10-02T15:40:35.987Z,14.60
2018-10-02T15:44:44.424Z,14.60
2018-10-02T15:48:52.677Z,14.30
2018-10-02T15:53:01.114Z,14.30
2018-10-02T15:57:09.628Z,14.30
2018-10-02T16:01:17.955Z,14.40
2018-10-02T16:05:26.420Z,14.60
2018-10-02T16:09:35.093Z,14.80
2018-10-02T16:13:43.422Z,14.80
2018-10-02T16:17:51.708Z,14.80
2018-10-02T16:22:00.062Z,14.80
2018-10-02T16:26:09.316Z,14.80
2018-10-02T16:30:17.621Z,14.90
2018-10-02T16:34:26.117Z,14.90
2018-10-02T16:38:35.058Z,14.90
2018-10-02T16:42:43.349Z,14.90
2018-10-02T16:46:51.611Z,14.80
2018-10-02T16:50:59.886Z,14.70
2018-10-02T16:55:08.763Z,14.70
2018-10-02T16:59:17.046Z,14.50
2018-10-02T17:03:25.497Z,14.50
2018-10-02T17:07:34.010Z,14.40
2018-10-02T17:11:42.289Z,14.50
2018-10-02T17:15:50.572Z,14.50
2018-10-02T17:19:59.038Z,14.40
2018-10-02T17:24:07.772Z,14.40
2018-10-02T17:28:16.125Z,14.20
2018-10-02T17:32:24.444Z,14.30
2018-10-02T17:36:32.956Z,14.20
2018-10-02T17:40:41.433Z,14.20
2018-10-02T17:44:49.688Z,14.20
2018-10-02T17:48:58.195Z,14.10
2018-10-02T17:53:06.646Z,14.00
2018-10-02T17:57:14.938Z,14.00
2018-10-02T18:01:23.207Z,13.70
2018-10-02T18:05:31.453Z,13.70
2018-10-02T18:09:39.897Z,13.70
2018-10-02T18:13:48.146Z,13.80
2018-10-02T18:17:56.466Z,13.80
2018-10-02T18:22:06.527Z,13.70
2018-10-02T18:26:14.913Z,13.70
2018-10-02T18:30:23.211Z,13.70
2018-10-02T18:34:31.510Z,13.70
2018-10-02T18:38:39.937Z,13.80
2018-10-02T18:42:48.203Z,13.80
2018-10-02T18:46:56.566Z,13.70
2018-10-02T18:51:05.262Z,13.70
2018-10-02T18:55:13.536Z,13.70
2018-10-02T18:59:23.368Z,13.70
2018-10-02T19:03:31.679Z,13.70
2018-10-02T19:07:40.205Z,13.50
2018-10-02T19:11:53.968Z,13.50
2018-10-02T19:16:07.813Z,13.40
2018-10-02T19:20:51.538Z,13.40
2018-10-02T19:25:05.377Z,13.30
2018-10-02T19:29:13.648Z,13.40
2018-10-02T19:33:21.926Z,13.30
2018-10-02T19:37:35.823Z,13.20
2018-10-02T19:41:44.104Z,13.10
2018-10-02T19:45:57.788Z,13.20
2018-10-02T19:50:06.511Z,13.10
2018-10-02T19:54:14.847Z,13.00
2018-10-02T19:58:23.083Z,13.00
2018-10-02T20:02:31.424Z,13.10
2018-10-02T20:06:40.035Z,13.00
2018-10-02T20:10:48.308Z,12.90
2018-10-02T20:14:56.754Z,12.80
2018-10-02T20:19:05.890Z,12.80
2018-10-02T20:23:14.185Z,12.80
2018-10-02T20:27:22.492Z,12.80
2018-10-02T20:31:32.343Z,12.70
2018-10-02T20:35:40.820Z,12.70
2018-10-02T20:39:49.216Z,12.60
2018-10-02T20:43:57.708Z,12.60
2018-10-02T20:48:05.998Z,12.60
2018-10-02T20:52:14.318Z,12.60
2018-10-02T20:56:23.278Z,12.60
2018-10-02T21:00:31.604Z,12.60
2018-10-02T21:04:40.080Z,12.50
2018-10-02T21:08:49.312Z,12.50
2018-10-02T21:12:57.809Z,12.50
2018-10-02T21:17:06.154Z,12.40
2018-10-02T21:21:14.463Z,12.40
2018-10-02T21:25:23.262Z,12.30
2018-10-02T21:29:31.592Z,12.30
2018-10-02T21:33:40.111Z,12.40
2018-10-02T21:37:48.436Z,12.30
2018-10-02T21:41:56.785Z,12.40
2018-10-02T21:46:05.094Z,12.40
2018-10-02T21:50:13.592Z,12.40
2018-10-02T21:54:22.395Z,12.30
2018-10-02T21:58:30.650Z,12.30
2018-10-02T22:02:39.039Z,12.30
2018-10-02T22:06:47.295Z,12.30
2018-10-02T22:10:55.808Z,12.20
2018-10-02T22:15:04.111Z,12.20
2018-10-02T22:19:12.547Z,12.20
2018-10-02T22:23:21.225Z,12.20
2018-10-02T22:27:29.504Z,12.20
2018-10-02T22:31:37.736Z,12.10
2018-10-02T22:35:46.041Z,12.00
2018-10-02T22:39:54.664Z,12.00
2018-10-02T22:44:02.935Z,12.00
2018-10-02T22:48:11.320Z,12.00
2018-10-02T22:52:19.828Z,11.90
2018-10-02T22:56:28.134Z,11.90
2018-10-02T23:00:36.449Z,11.90
2018-10-02T23:04:44.748Z,11.80
2018-10-02T23:08:53.568Z,11.80
2018-10-02T23:13:01.956Z,11.80
2018-10-02T23:17:10.500Z,11.80
2018-10-02T23:21:18.915Z,11.80
2018-10-02T23:25:27.452Z,11.80
2018-10-02T23:29:35.712Z,11.70
2018-10-02T23:33:43.968Z,11.70
2018-10-02T23:37:52.745Z,11.60
2018-10-02T23:42:01.052Z,11.60
2018-10-02T23:46:09.409Z,11.50
2018-10-02T23:50:17.637Z,11.50
2018-10-02T23:54:26.120Z,11.50
2018-10-02T23:58:34.424Z,11.50
